Coober Pedy, South Australia

11:04 AM ACST on August 24, 2016 (GMT +0930)
Coober Pedy | | Change Station

Elev 663 ft 29.00 °S, 134.76 °E | Updated 8 seconds ago

Partly Cloudy
Partly Cloudy
64.6 °F
Feels Like 64.6 °F
N
0.0
Wind Variable Wind from WNW
Gusts 0.0 mph

Today
High -- | Low -- °F
--% Chance of Precip.
Yesterday
High -- | Low -- °F
Precip. -- in
Pressure 30.04 in
Visibility -9999.0 miles
Clouds
Dew Point 25 °F
Humidity 22%
Rainfall 0.00 in
Snow Depth Not available.
6:54 AM 6:12 PM
Waning Gibbous, 62% visible
METAR YCBP 240100Z AUTO 24004KT //// // ////// 15/02 Q1017
Pressure 30.04 in
Visibility -9999.0 miles
Clouds
Dew Point 25 °F
Humidity 22%
Rainfall 0.00 in
Snow Depth Not available.
6:54 AM 6:12 PM
Waning Gibbous, 62% visible
METAR YCBP 240100Z AUTO 24004KT //// // ////// 15/02 Q1017

10-Day Weather Forecast

No radar image for this location.
×

Almanac

Astronomy

Aug. 24, 2016 Rise Set
Actual Time
Civil Twilight
Nautical Twilight
Astronomical Twilight
Moon
Length of Visible Light
Length of Day
Tomorrow will be .
, % of the Moon is Illuminated

Today's Extremes

Country Highs Country Lows

Community

WunderPhotos

Upload Photos

1,934,517 photos uploaded!

WunderBlog® & News

Nearby

Air Quality

  Air Quality AQ Index Pollutant
Not available.

Snow Depth

Station Depth Elevation

Earthquake Activity

City Distance Mag. Time & Date
Minimum magnitude displayed is 2.5.

Coastal Water Temperatures

Place Temperature

Stations

Nearby Weather Stations

Station Location Temp. Windchill Dew Point Humidity Wind Precip. Elev Updated Type